createdAt,value
2019-04-14T00:07:58.433Z,43.40
2019-04-14T00:10:48.648Z,43.23
2019-04-14T00:13:32.809Z,47.07
2019-04-14T00:16:22.837Z,43.47
2019-04-14T00:19:08.678Z,42.87
2019-04-14T00:22:01.656Z,45.10
2019-04-14T00:24:44.593Z,47.07
2019-04-14T00:27:34.589Z,47.23
2019-04-14T00:30:18.808Z,46.07
2019-04-14T00:33:09.129Z,46.60
2019-04-14T00:39:20.403Z,44.90
2019-04-14T00:42:23.784Z,48.43
2019-04-14T00:45:38.262Z,46.17
2019-04-14T00:48:21.445Z,46.90
2019-04-14T00:51:11.946Z,45.90
2019-04-14T00:54:02.204Z,53.83
2019-04-14T00:56:45.964Z,53.67
2019-04-14T00:59:35.751Z,50.60
2019-04-14T01:05:31.776Z,50.33
2019-04-14T01:08:14.161Z,48.37
2019-04-14T01:14:10.113Z,48.07
2019-04-14T01:16:53.961Z,53.07
2019-04-14T01:19:43.909Z,49.77
2019-04-14T01:22:33.714Z,50.30
2019-04-14T01:25:23.891Z,53.87
2019-04-14T01:28:08.881Z,54.83
2019-04-14T01:30:59.025Z,46.07
2019-04-14T01:33:47.068Z,51.50
2019-04-14T01:36:29.875Z,49.67
2019-04-14T01:42:16.140Z,45.40
2019-04-14T01:45:07.848Z,47.50
2019-04-14T01:47:51.119Z,45.23
2019-04-14T01:54:10.622Z,48.30
2019-04-14T01:57:19.962Z,46.77
2019-04-14T02:00:22.821Z,47.77
2019-04-14T02:03:12.814Z,45.87
2019-04-14T02:05:56.283Z,44.17
2019-04-14T02:08:46.044Z,46.47
2019-04-14T02:11:29.175Z,44.43
2019-04-14T02:14:19.114Z,44.23
2019-04-14T02:17:04.023Z,44.27
2019-04-14T02:19:52.855Z,43.07
2019-04-14T02:22:35.603Z,43.00
2019-04-14T02:28:29.105Z,41.43
2019-04-14T02:31:24.830Z,38.20
2019-04-14T02:34:34.773Z,41.43
2019-04-14T02:37:26.318Z,41.47
2019-04-14T02:45:42.923Z,43.37
2019-04-14T02:51:25.664Z,39.53
2019-04-14T02:53:59.239Z,41.73
2019-04-14T02:56:52.767Z,40.20
2019-04-14T02:59:35.555Z,39.83
2019-04-14T03:02:30.967Z,40.43
2019-04-14T03:04:56.724Z,38.07
2019-04-14T03:07:45.836Z,38.00
2019-04-14T03:10:33.680Z,37.93
2019-04-14T03:13:23.073Z,37.60
2019-04-14T03:16:17.552Z,40.63
2019-04-14T03:19:24.994Z,35.63
2019-04-14T03:25:30.101Z,38.70
2019-04-14T03:31:39.124Z,39.10
2019-04-14T03:34:30.233Z,38.37
2019-04-14T03:39:42.712Z,37.97
2019-04-14T03:42:37.732Z,38.10
2019-04-14T03:45:14.331Z,38.63
2019-04-14T03:48:34.420Z,37.63
2019-04-14T03:50:55.655Z,34.53
2019-04-14T03:53:32.090Z,39.67
2019-04-14T03:56:20.147Z,36.37
2019-04-14T03:59:04.265Z,35.70
2019-04-14T04:01:54.547Z,36.37
2019-04-14T04:04:38.751Z,35.23
2019-04-14T04:07:28.498Z,36.00
2019-04-14T04:13:17.209Z,36.30
2019-04-14T04:16:26.860Z,36.63
2019-04-14T04:22:39.006Z,36.20
2019-04-14T04:25:40.288Z,35.67
2019-04-14T04:28:49.628Z,37.23
2019-04-14T04:31:52.616Z,38.07
2019-04-14T04:34:49.094Z,35.90
2019-04-14T04:37:52.087Z,36.27
2019-04-14T04:40:41.986Z,36.23
2019-04-14T04:43:31.924Z,37.03
2019-04-14T04:46:22.080Z,36.67
2019-04-14T04:49:11.700Z,37.80
2019-04-14T04:51:57.450Z,35.43
2019-04-14T04:54:47.496Z,37.07
2019-04-14T04:57:32.580Z,34.97
2019-04-14T05:00:22.566Z,36.50
2019-04-14T05:03:25.442Z,32.20
2019-04-14T05:06:31.055Z,31.63
2019-04-14T05:09:40.587Z,32.00
2019-04-14T05:12:43.536Z,33.10
2019-04-14T05:15:53.228Z,31.70
2019-04-14T05:18:36.330Z,30.43
2019-04-14T05:21:26.043Z,33.00
2019-04-14T05:24:09.287Z,30.53
2019-04-14T05:26:59.285Z,32.80
2019-04-14T05:29:43.016Z,30.50
2019-04-14T05:32:32.811Z,32.53
2019-04-14T05:35:14.798Z,32.07
2019-04-14T05:38:04.501Z,30.67
2019-04-14T05:43:55.658Z,30.53
2019-04-14T05:46:42.510Z,27.67
2019-04-14T05:49:34.838Z,26.67
2019-04-14T05:52:16.351Z,28.93
2019-04-14T05:55:00.099Z,25.70
2019-04-14T05:57:50.268Z,27.20
2019-04-14T06:00:36.280Z,26.67
2019-04-14T06:06:29.834Z,25.40
2019-04-14T06:09:12.697Z,26.17
2019-04-14T06:12:02.423Z,23.30
2019-04-14T06:14:45.207Z,21.83
2019-04-14T06:17:34.975Z,24.07
2019-04-14T06:20:17.307Z,22.57
2019-04-14T06:23:07.055Z,21.53
2019-04-14T06:25:49.408Z,21.10
2019-04-14T06:28:39.169Z,20.23
2019-04-14T06:31:40.533Z,19.50
2019-04-14T06:37:45.256Z,19.00
2019-04-14T06:40:29.323Z,17.17
2019-04-14T06:43:19.211Z,18.00
2019-04-14T06:46:09.103Z,16.90
2019-04-14T06:48:58.936Z,17.80
2019-04-14T06:51:48.970Z,17.13
2019-04-14T06:54:38.791Z,17.03
2019-04-14T06:57:28.631Z,18.13
2019-04-14T07:00:18.450Z,17.83
2019-04-14T07:03:08.224Z,19.27
2019-04-14T07:06:00.130Z,20.33
2019-04-14T07:08:42.325Z,18.17
2019-04-14T07:11:32.115Z,19.40
2019-04-14T07:14:21.917Z,20.77
2019-04-14T07:17:11.902Z,19.67
2019-04-14T07:20:08.706Z,20.43
2019-04-14T07:22:58.599Z,19.57
2019-04-14T07:25:48.411Z,20.97
2019-04-14T07:28:38.297Z,21.03
2019-04-14T07:31:46.867Z,21.40
2019-04-14T07:34:55.482Z,18.90
2019-04-14T07:38:03.196Z,17.43
2019-04-14T07:41:11.770Z,16.60
2019-04-14T07:44:15.284Z,18.53
2019-04-14T07:47:11.846Z,19.57
2019-04-14T07:50:17.464Z,16.50
2019-04-14T07:53:26.038Z,18.37
2019-04-14T07:56:33.010Z,19.47
2019-04-14T07:59:30.406Z,24.67
2019-04-14T08:05:39.468Z,18.87
2019-04-14T08:08:21.824Z,21.77
2019-04-14T08:11:11.652Z,20.07
2019-04-14T08:13:54.780Z,22.70
2019-04-14T08:16:44.530Z,19.80
2019-04-14T08:19:27.314Z,21.37
2019-04-14T08:22:17.150Z,20.47
2019-04-14T08:24:59.726Z,19.57
2019-04-14T08:30:50.866Z,18.90
2019-04-14T08:33:40.610Z,18.37
2019-04-14T08:36:22.931Z,18.43
2019-04-14T08:39:12.679Z,17.83
2019-04-14T08:42:17.580Z,17.90
2019-04-14T08:48:36.009Z,20.87
2019-04-14T08:51:29.945Z,21.07
2019-04-14T08:54:31.599Z,19.93
2019-04-14T08:57:40.128Z,18.00
2019-04-14T09:00:30.311Z,27.93
2019-04-14T09:03:38.887Z,30.73
2019-04-14T09:06:25.995Z,21.47
2019-04-14T09:09:34.556Z,18.47
2019-04-14T09:12:19.935Z,19.43
2019-04-14T09:18:11.630Z,18.67
2019-04-14T09:21:01.488Z,19.50
2019-04-14T09:23:43.742Z,18.50
2019-04-14T09:26:34.671Z,21.30
2019-04-14T09:29:17.141Z,17.90
2019-04-14T09:35:10.155Z,17.23
2019-04-14T09:37:59.922Z,19.00
2019-04-14T09:40:42.291Z,18.60
2019-04-14T09:43:32.109Z,19.33
2019-04-14T09:46:14.597Z,20.27
2019-04-14T09:49:04.319Z,24.67
2019-04-14T09:51:46.772Z,20.37
2019-04-14T09:54:36.569Z,23.53
2019-04-14T09:57:19.063Z,22.07
2019-04-14T10:00:09.043Z,20.03
2019-04-14T10:05:54.870Z,21.70
2019-04-14T10:11:52.364Z,18.63
2019-04-14T10:14:33.233Z,16.93
2019-04-14T10:17:04.131Z,18.70
2019-04-14T10:19:53.961Z,18.43
2019-04-14T10:22:43.845Z,20.10
2019-04-14T10:25:26.450Z,18.13
2019-04-14T10:28:16.615Z,18.70
2019-04-14T10:30:59.019Z,19.90
2019-04-14T10:33:48.822Z,22.43
2019-04-14T10:36:31.194Z,19.03
2019-04-14T10:39:21.005Z,26.13
2019-04-14T10:42:03.856Z,26.73
2019-04-14T10:44:53.769Z,29.13
2019-04-14T10:47:43.478Z,28.20
2019-04-14T10:50:33.374Z,27.80
2019-04-14T10:53:23.151Z,25.43
2019-04-14T10:56:05.487Z,26.93
2019-04-14T10:58:55.259Z,27.60
2019-04-14T11:01:38.009Z,30.03
2019-04-14T11:07:32.973Z,30.87
2019-04-14T11:10:22.747Z,31.10
2019-04-14T11:13:05.516Z,31.20
2019-04-14T11:15:55.294Z,31.87
2019-04-14T11:18:39.235Z,31.03
2019-04-14T11:21:41.657Z,29.17
2019-04-14T11:24:12.968Z,31.67
2019-04-14T11:27:02.729Z,29.27
2019-04-14T11:29:45.620Z,29.70
2019-04-14T11:32:35.130Z,31.97
2019-04-14T11:38:33.945Z,30.90
2019-04-14T11:47:08.608Z,32.93
2019-04-14T11:49:58.692Z,30.20
2019-04-14T11:52:41.546Z,29.87
2019-04-14T11:55:31.295Z,32.50
2019-04-14T11:58:14.482Z,30.63
2019-04-14T12:01:23.140Z,30.63
2019-04-14T12:07:39.353Z,26.33
2019-04-14T12:10:29.826Z,25.20
2019-04-14T12:16:11.332Z,24.47
2019-04-14T12:19:00.504Z,25.43
2019-04-14T12:21:50.169Z,25.30
2019-04-14T12:24:39.944Z,25.67
2019-04-14T12:27:44.545Z,24.80
2019-04-14T12:30:20.185Z,23.13
2019-04-14T12:33:04.886Z,21.40
2019-04-14T12:36:15.592Z,19.53
2019-04-14T12:38:59.148Z,19.33
2019-04-14T12:51:11.392Z,17.97
2019-04-14T12:54:01.300Z,19.53
2019-04-14T12:56:49.565Z,18.50
2019-04-14T12:59:33.421Z,18.97
2019-04-14T13:02:26.104Z,19.57
2019-04-14T13:05:15.592Z,17.93
2019-04-14T13:11:28.388Z,16.63
2019-04-14T13:17:04.501Z,16.47
2019-04-14T13:19:56.747Z,17.67
2019-04-14T13:25:28.353Z,18.07
2019-04-14T13:28:10.785Z,18.40
2019-04-14T13:30:43.489Z,17.73
2019-04-14T13:33:33.584Z,17.73
2019-04-14T13:36:04.513Z,17.60
2019-04-14T13:39:14.896Z,17.77
2019-04-14T13:41:45.651Z,16.70
2019-04-14T13:44:35.753Z,16.97
2019-04-14T13:47:21.689Z,17.13
2019-04-14T13:49:54.781Z,17.13
2019-04-14T13:52:46.966Z,18.37
2019-04-14T13:55:33.749Z,17.13
2019-04-14T13:58:23.655Z,18.23
2019-04-14T14:01:06.604Z,17.37
2019-04-14T14:04:00.741Z,17.47
2019-04-14T14:06:46.323Z,18.10
2019-04-14T14:09:36.107Z,17.13
2019-04-14T14:12:37.298Z,16.20
2019-04-14T14:15:45.973Z,14.87
2019-04-14T14:18:51.055Z,16.83
2019-04-14T14:21:47.535Z,17.47
2019-04-14T14:30:34.674Z,16.63
2019-04-14T14:33:24.393Z,16.20
2019-04-14T14:36:06.982Z,16.83
2019-04-14T14:38:56.978Z,17.00
2019-04-14T14:41:40.967Z,16.10
2019-04-14T14:44:49.555Z,14.97
2019-04-14T14:47:33.187Z,15.43
2019-04-14T14:50:41.273Z,15.07
2019-04-14T14:53:23.947Z,13.93
2019-04-14T14:56:13.768Z,14.30
2019-04-14T14:59:15.683Z,15.17
2019-04-14T15:02:00.769Z,13.70
2019-04-14T15:04:50.563Z,13.83
2019-04-14T15:07:21.751Z,15.17
2019-04-14T15:10:13.067Z,14.67
2019-04-14T15:12:55.587Z,14.67
2019-04-14T15:15:45.815Z,14.87
2019-04-14T15:18:16.561Z,13.43
2019-04-14T15:21:06.547Z,14.20
2019-04-14T15:23:49.004Z,15.37
2019-04-14T15:26:38.786Z,15.07
2019-04-14T15:29:20.782Z,15.20
2019-04-14T15:32:10.635Z,16.43
2019-04-14T15:34:56.654Z,16.63
2019-04-14T15:37:46.444Z,16.87
2019-04-14T15:40:17.299Z,16.23
2019-04-14T15:43:07.084Z,17.63
2019-04-14T15:45:48.996Z,19.10
2019-04-14T15:48:31.306Z,18.53
2019-04-14T15:51:15.516Z,18.93
2019-04-14T15:57:08.392Z,19.97
2019-04-14T16:03:02.534Z,18.97
2019-04-14T16:19:19.574Z,17.70
2019-04-14T16:22:06.266Z,17.57
2019-04-14T16:24:49.530Z,19.77
2019-04-14T16:27:39.128Z,16.87
2019-04-14T16:44:52.904Z,18.00
2019-04-14T17:02:57.860Z,18.37
2019-04-14T17:05:47.751Z,21.23
2019-04-14T17:08:37.535Z,23.47
2019-04-14T17:11:27.475Z,25.07
2019-04-14T17:18:00.247Z,18.50
2019-04-14T17:21:03.043Z,18.60
2019-04-14T17:24:16.512Z,17.40
2019-04-14T17:27:16.205Z,17.50
2019-04-14T17:33:20.044Z,18.93
2019-04-14T17:36:29.017Z,18.47
2019-04-14T17:39:37.590Z,19.87
2019-04-14T17:42:29.621Z,20.47
2019-04-14T17:45:39.184Z,19.83
2019-04-14T17:55:49.737Z,19.10
2019-04-14T17:58:35.291Z,19.00
2019-04-14T18:01:36.674Z,18.30
2019-04-14T18:04:45.669Z,18.70
2019-04-14T18:07:42.609Z,18.67
2019-04-14T18:10:51.214Z,18.20
2019-04-14T18:13:59.985Z,18.83
2019-04-14T18:17:08.821Z,18.80
2019-04-14T18:20:18.355Z,18.80
2019-04-14T18:23:10.517Z,21.20
2019-04-14T18:26:00.293Z,19.87
2019-04-14T18:29:01.652Z,19.63
2019-04-14T18:35:08.129Z,20.40
2019-04-14T18:38:15.492Z,19.10
2019-04-14T18:41:12.280Z,19.07
2019-04-14T18:47:13.067Z,19.73
2019-04-14T18:50:12.889Z,22.73
2019-04-14T18:53:16.933Z,20.70
2019-04-14T18:56:25.644Z,21.57
2019-04-14T18:59:28.142Z,18.10
2019-04-14T19:02:19.646Z,18.83
2019-04-14T19:05:02.365Z,17.37
2019-04-14T19:07:52.452Z,16.73
2019-04-14T19:10:35.298Z,17.43
2019-04-14T19:19:37.770Z,17.53
2019-04-14T19:22:20.340Z,19.30
2019-04-14T19:25:10.364Z,20.40
2019-04-14T19:28:00.330Z,19.40
2019-04-14T19:30:50.166Z,19.23
2019-04-14T19:33:32.262Z,23.33
2019-04-14T19:36:22.156Z,19.63
2019-04-14T19:39:31.116Z,20.33
2019-04-14T19:42:01.798Z,21.30
2019-04-14T19:44:51.560Z,20.60
2019-04-14T19:47:34.140Z,20.47
2019-04-14T19:50:23.878Z,21.20
2019-04-14T19:53:14.227Z,21.53
2019-04-14T19:56:03.993Z,21.07
2019-04-14T19:58:46.496Z,21.47
2019-04-14T20:01:36.594Z,21.40
2019-04-14T20:04:20.692Z,19.70
2019-04-14T20:07:12.182Z,21.13
2019-04-14T20:09:54.414Z,20.03
2019-04-14T20:12:44.238Z,20.87
2019-04-14T20:18:39.908Z,20.40
2019-04-14T20:24:46.087Z,19.50
2019-04-14T20:27:55.342Z,20.50
2019-04-14T20:30:48.854Z,21.13
2019-04-14T20:33:38.621Z,22.07
2019-04-14T20:36:09.329Z,20.27
2019-04-14T20:38:59.098Z,22.40
2019-04-14T20:41:48.902Z,21.07
2019-04-14T20:44:31.459Z,20.30
2019-04-14T20:47:21.441Z,21.07
2019-04-14T20:53:05.302Z,20.10
2019-04-14T20:55:46.244Z,19.70
2019-04-14T20:58:20.739Z,19.73
2019-04-14T21:00:51.547Z,19.80
2019-04-14T21:04:00.351Z,19.50
2019-04-14T21:07:08.591Z,21.07
2019-04-14T21:10:10.987Z,20.47
2019-04-14T21:13:20.574Z,20.93
2019-04-14T21:16:12.766Z,20.53
2019-04-14T21:18:56.881Z,20.83
2019-04-14T21:25:14.867Z,21.30
2019-04-14T21:28:23.519Z,20.43
2019-04-14T21:31:26.139Z,20.73
2019-04-14T21:34:22.953Z,20.07
2019-04-14T21:37:32.000Z,21.53
2019-04-14T21:40:40.948Z,20.57
2019-04-14T21:43:23.309Z,21.40
2019-04-14T21:46:13.069Z,19.93
2019-04-14T21:48:59.491Z,21.83
2019-04-14T21:52:08.791Z,20.70
2019-04-14T21:54:52.330Z,20.57
2019-04-14T21:58:01.973Z,19.90
2019-04-14T22:01:27.010Z,20.83
2019-04-14T22:04:35.574Z,18.87
2019-04-14T22:07:42.854Z,19.47
2019-04-14T22:10:51.409Z,20.33
2019-04-14T22:13:37.398Z,19.57
2019-04-14T22:16:28.043Z,20.57
2019-04-14T22:19:19.679Z,19.40
2019-04-14T22:22:03.674Z,21.77
2019-04-14T22:24:53.687Z,20.37
2019-04-14T22:27:43.710Z,21.93
2019-04-14T22:30:33.579Z,26.33
2019-04-14T22:33:23.745Z,29.70
2019-04-14T22:36:13.663Z,35.33
2019-04-14T22:42:03.259Z,28.23
2019-04-14T22:44:53.358Z,27.33
2019-04-14T22:47:35.960Z,27.87
2019-04-14T22:50:26.256Z,28.47
2019-04-14T22:53:11.266Z,36.23
2019-04-14T22:56:01.315Z,31.60
2019-04-14T22:58:44.127Z,31.90
2019-04-14T23:04:10.853Z,37.93
2019-04-14T23:07:00.460Z,34.90
2019-04-14T23:10:07.220Z,39.07
2019-04-14T23:13:10.881Z,38.63
2019-04-14T23:16:22.813Z,41.47
2019-04-14T23:18:59.942Z,37.10
2019-04-14T23:21:49.567Z,37.47
2019-04-14T23:24:42.182Z,39.03
2019-04-14T23:27:31.886Z,35.67
2019-04-14T23:30:21.636Z,34.57
2019-04-14T23:33:06.313Z,36.00
2019-04-14T23:35:56.589Z,38.33
2019-04-14T23:38:39.880Z,40.47
2019-04-14T23:44:34.725Z,42.47
2019-04-14T23:47:43.483Z,39.07
2019-04-14T23:50:27.716Z,38.50
2019-04-14T23:53:17.956Z,40.90
2019-04-14T23:56:06.697Z,37.03
2019-04-14T23:58:56.973Z,39.27
